createdAt,value
2022-11-03T00:01:21.551Z,5.3
2022-11-03T00:08:53.895Z,5.3
2022-11-03T00:16:26.175Z,5.3
2022-11-03T00:23:58.455Z,5.3
2022-11-03T00:31:30.723Z,5.3
2022-11-03T00:39:03.001Z,5.6
2022-11-03T00:46:35.626Z,5.6
2022-11-03T00:54:08.196Z,5.6
2022-11-03T01:01:45.313Z,5.6
2022-11-03T01:09:19.184Z,5.6
2022-11-03T01:16:51.456Z,5.6
2022-11-03T01:24:23.763Z,5.6
2022-11-03T01:31:56.036Z,5.6
2022-11-03T01:39:28.302Z,5.9
2022-11-03T01:47:00.574Z,5.9
2022-11-03T01:54:32.839Z,5.9
2022-11-03T02:02:05.216Z,5.9
2022-11-03T02:09:37.580Z,5.9
2022-11-03T02:17:09.857Z,5.9
2022-11-03T02:24:42.126Z,5.9
2022-11-03T02:32:14.403Z,5.9
2022-11-03T02:39:46.644Z,5.9
2022-11-03T02:47:19.064Z,5.9
2022-11-03T02:54:51.316Z,5.9
2022-11-03T03:02:23.607Z,5.9
2022-11-03T03:09:55.914Z,5.9
2022-11-03T03:17:28.174Z,5.9
2022-11-03T03:25:00.440Z,5.9
2022-11-03T03:32:32.716Z,5.9
2022-11-03T03:40:04.975Z,5.9
2022-11-03T03:47:37.255Z,5.9
2022-11-03T03:55:09.524Z,5.9
2022-11-03T04:02:41.795Z,5.9
2022-11-03T04:10:14.070Z,5.9
2022-11-03T04:25:23.538Z,5.9
2022-11-03T04:32:55.795Z,5.9
2022-11-03T04:40:28.054Z,5.6
2022-11-03T04:48:00.361Z,5.6
2022-11-03T04:55:32.630Z,5.6
2022-11-03T05:03:04.896Z,5.6
2022-11-03T05:10:37.168Z,5.6
2022-11-03T05:17:06.700Z,5.6
2022-11-03T05:17:53.993Z,5.6
2022-11-03T05:18:41.277Z,5.6
2022-11-03T05:19:28.555Z,5.6
2022-11-03T05:20:15.895Z,5.6
2022-11-03T05:21:03.153Z,5.6
2022-11-03T05:21:50.429Z,5.6
2022-11-03T05:22:37.709Z,5.6
2022-11-03T05:23:25.018Z,5.6
2022-11-03T05:24:12.351Z,5.6
2022-11-03T05:24:59.711Z,5.6
2022-11-03T05:25:47.007Z,5.6
2022-11-03T05:26:34.297Z,5.6
2022-11-03T05:27:21.587Z,5.6
2022-11-03T05:28:08.961Z,5.6
2022-11-03T05:28:56.476Z,5.6
2022-11-03T05:29:43.773Z,5.6
2022-11-03T05:30:31.075Z,6.6
2022-11-03T05:31:18.348Z,6.6
2022-11-03T05:32:05.651Z,6.6
2022-11-03T05:32:52.917Z,6.6
2022-11-03T05:33:40.201Z,6.6
2022-11-03T05:34:27.507Z,6.6
2022-11-03T05:35:14.783Z,6.6
2022-11-03T05:36:02.050Z,6.6
2022-11-03T05:36:49.366Z,6.6
2022-11-03T05:37:36.656Z,6.6
2022-11-03T05:38:23.935Z,6.6
2022-11-03T05:39:11.259Z,6.6
2022-11-03T05:39:58.521Z,6.6
2022-11-03T05:40:45.783Z,6.6
2022-11-03T05:41:33.114Z,6.6
2022-11-03T05:42:20.377Z,6.6
2022-11-03T05:43:12.089Z,6.6
2022-11-03T05:43:59.577Z,6.6
2022-11-03T05:44:46.992Z,6.6
2022-11-03T05:45:34.273Z,6.6
2022-11-03T05:46:21.547Z,6.6
2022-11-03T05:47:09.134Z,6.6
2022-11-03T05:47:56.414Z,6.6
2022-11-03T05:48:43.682Z,6.6
2022-11-03T05:49:31.088Z,6.6
2022-11-03T05:50:18.352Z,6.6
2022-11-03T05:51:05.620Z,6.6
2022-11-03T05:51:52.985Z,6.6
2022-11-03T05:52:40.266Z,6.6
2022-11-03T05:53:27.552Z,6.6
2022-11-03T05:54:18.578Z,6.6
2022-11-03T05:55:07.058Z,6.6
2022-11-03T05:55:54.395Z,6.6
2022-11-03T05:56:41.660Z,6.6
2022-11-03T05:57:28.952Z,6.6
2022-11-03T05:58:16.359Z,6.6
2022-11-03T05:59:03.619Z,6.6
2022-11-03T05:59:50.893Z,6.6
2022-11-03T06:00:38.311Z,6.6
2022-11-03T06:01:25.659Z,6.6
2022-11-03T06:02:13.093Z,6.6
2022-11-03T06:03:00.584Z,6.6
2022-11-03T06:03:47.897Z,6.6
2022-11-03T06:04:35.172Z,6.6
2022-11-03T06:05:22.563Z,6.6
2022-11-03T06:06:09.823Z,6.6
2022-11-03T06:06:57.080Z,6.6
2022-11-03T06:07:44.487Z,6.6
2022-11-03T06:08:31.760Z,6.6
2022-11-03T06:09:19.039Z,6.6
2022-11-03T06:10:06.459Z,6.6
2022-11-03T06:10:53.772Z,6.6
2022-11-03T06:11:41.045Z,6.6
2022-11-03T06:12:28.467Z,6.6
2022-11-03T06:13:15.747Z,6.6
2022-11-03T06:14:03.028Z,6.6
2022-11-03T06:14:50.428Z,6.6
2022-11-03T06:15:37.739Z,6.6
2022-11-03T06:16:25.022Z,6.6
2022-11-03T06:17:12.423Z,6.6
2022-11-03T06:17:59.755Z,6.6
2022-11-03T06:18:47.020Z,6.6
2022-11-03T06:19:34.455Z,6.6
2022-11-03T06:20:21.736Z,6.6
2022-11-03T06:21:09.002Z,6.6
2022-11-03T06:21:56.431Z,6.6
2022-11-03T06:22:43.692Z,6.6
2022-11-03T06:23:30.967Z,6.6
2022-11-03T06:24:18.400Z,6.6
2022-11-03T06:25:05.662Z,6.6
2022-11-03T06:25:52.929Z,6.6
2022-11-03T06:26:40.372Z,6.6
2022-11-03T06:27:27.663Z,6.6
2022-11-03T06:28:14.936Z,6.6
2022-11-03T06:29:02.373Z,6.6
2022-11-03T06:29:49.647Z,6.6
2022-11-03T06:30:36.965Z,10.1
2022-11-03T06:31:24.347Z,10.1
2022-11-03T06:32:11.622Z,10.1
2022-11-03T06:32:58.936Z,10.1
2022-11-03T06:33:46.351Z,10.1
2022-11-03T06:34:33.634Z,10.1
2022-11-03T06:35:20.911Z,10.1
2022-11-03T06:36:08.333Z,10.1
2022-11-03T06:36:55.632Z,10.1
2022-11-03T06:37:42.930Z,10.1
2022-11-03T06:38:30.333Z,10.1
2022-11-03T06:39:17.607Z,10.1
2022-11-03T06:40:04.875Z,10.1
2022-11-03T06:40:52.316Z,10.1
2022-11-03T06:41:39.593Z,10.1
2022-11-03T06:42:31.771Z,10.1
2022-11-03T06:43:19.408Z,10.1
2022-11-03T06:44:06.807Z,10.1
2022-11-03T06:44:54.133Z,10.1
2022-11-03T06:45:41.408Z,10.1
2022-11-03T06:46:28.803Z,10.1
2022-11-03T06:47:16.083Z,10.1
2022-11-03T06:48:03.361Z,10.1
2022-11-03T06:48:50.750Z,10.1
2022-11-03T06:49:38.023Z,10.1
2022-11-03T06:50:25.334Z,10.1
2022-11-03T06:51:12.696Z,10.1
2022-11-03T06:51:59.979Z,10.1
2022-11-03T06:52:50.235Z,10.1
2022-11-03T06:53:37.533Z,10.1
2022-11-03T06:54:24.967Z,10.1
2022-11-03T06:55:15.634Z,10.1
2022-11-03T06:56:04.455Z,10.1
2022-11-03T06:56:51.862Z,10.1
2022-11-03T06:57:39.210Z,10.1
2022-11-03T06:58:26.522Z,10.1
2022-11-03T06:59:13.939Z,10.1
2022-11-03T07:00:20.268Z,10.1
2022-11-03T07:01:02.975Z,10.1
2022-11-03T07:01:50.780Z,10.1
2022-11-03T07:02:38.320Z,10.1
2022-11-03T07:03:25.828Z,10.1
2022-11-03T07:04:13.119Z,10.1
2022-11-03T07:05:00.691Z,10.1
2022-11-03T07:05:48.037Z,10.1
2022-11-03T07:06:35.375Z,10.1
2022-11-03T07:07:22.695Z,10.1
2022-11-03T07:08:09.996Z,10.1
2022-11-03T07:08:57.343Z,10.1
2022-11-03T07:09:44.630Z,10.1
2022-11-03T07:10:31.948Z,10.1
2022-11-03T07:11:19.240Z,10.1
2022-11-03T07:12:06.616Z,10.1
2022-11-03T07:12:53.888Z,10.1
2022-11-03T07:13:41.180Z,10.1
2022-11-03T07:14:28.487Z,10.1
2022-11-03T07:15:15.797Z,10.1
2022-11-03T07:16:03.080Z,10.1
2022-11-03T07:16:50.394Z,10.1
2022-11-03T07:17:37.675Z,10.1
2022-11-03T07:18:25.022Z,10.1
2022-11-03T07:19:12.307Z,10.1
2022-11-03T07:19:59.630Z,10.1
2022-11-03T07:20:47.007Z,10.1
2022-11-03T07:21:34.340Z,10.1
2022-11-03T07:22:21.630Z,10.1
2022-11-03T07:23:08.967Z,10.1
2022-11-03T07:23:56.289Z,10.1
2022-11-03T07:24:43.556Z,10.1
2022-11-03T07:25:30.826Z,10.1
2022-11-03T07:26:18.200Z,10.1
2022-11-03T07:27:05.483Z,10.1
2022-11-03T07:27:52.761Z,10.1
2022-11-03T07:28:40.150Z,10.1
2022-11-03T07:29:27.448Z,10.1
2022-11-03T07:30:14.748Z,10.1
2022-11-03T07:31:02.077Z,10.7
2022-11-03T07:31:49.454Z,10.7
2022-11-03T07:32:36.764Z,10.7
2022-11-03T07:33:24.133Z,10.7
2022-11-03T07:34:11.469Z,10.7
2022-11-03T07:34:58.796Z,10.7
2022-11-03T07:36:14.827Z,10.7
2022-11-03T07:36:43.409Z,10.7
2022-11-03T07:37:30.765Z,10.7
2022-11-03T07:38:18.185Z,10.7
2022-11-03T07:39:05.575Z,10.7
2022-11-03T07:39:52.902Z,10.7
2022-11-03T07:40:40.235Z,10.7
2022-11-03T07:41:31.129Z,10.7
2022-11-03T07:42:21.444Z,10.7
2022-11-03T07:43:08.836Z,10.7
2022-11-03T07:43:56.144Z,10.7
2022-11-03T07:44:43.454Z,10.7
2022-11-03T07:45:30.844Z,10.7
2022-11-03T07:46:18.134Z,10.7
2022-11-03T07:47:05.473Z,10.7
2022-11-03T07:47:52.953Z,10.7
2022-11-03T07:48:40.246Z,10.7
2022-11-03T07:49:27.605Z,10.7
2022-11-03T07:50:15.026Z,10.7
2022-11-03T07:51:02.406Z,10.7
2022-11-03T07:51:50.119Z,10.7
2022-11-03T07:52:37.404Z,10.7
2022-11-03T07:53:26.105Z,10.7
2022-11-03T07:54:13.608Z,10.7
2022-11-03T07:55:01.031Z,10.7
2022-11-03T07:55:48.398Z,10.7
2022-11-03T07:56:35.834Z,10.7
2022-11-03T07:57:23.194Z,10.7
2022-11-03T07:58:10.537Z,10.7
2022-11-03T07:58:57.850Z,10.7
2022-11-03T07:59:45.304Z,10.7
2022-11-03T08:00:32.599Z,10.7
2022-11-03T08:01:19.927Z,10.7
2022-11-03T08:02:07.438Z,10.7
2022-11-03T08:02:54.864Z,10.7
2022-11-03T08:03:42.251Z,10.7
2022-11-03T08:04:29.619Z,10.7
2022-11-03T08:05:16.983Z,10.7
2022-11-03T08:06:06.139Z,10.7
2022-11-03T08:06:56.375Z,10.7
2022-11-03T08:07:43.759Z,10.7
2022-11-03T08:08:31.036Z,10.7
2022-11-03T08:09:18.347Z,10.7
2022-11-03T08:10:05.746Z,10.7
2022-11-03T08:10:53.051Z,10.7
2022-11-03T08:11:40.435Z,10.7
2022-11-03T08:12:27.837Z,10.7
2022-11-03T08:13:15.137Z,10.7
2022-11-03T08:14:02.424Z,10.7
2022-11-03T08:14:49.974Z,10.7
2022-11-03T08:15:37.267Z,10.7
2022-11-03T08:16:25.082Z,10.7
2022-11-03T08:17:12.405Z,10.7
2022-11-03T08:18:00.223Z,10.7
2022-11-03T08:18:47.515Z,10.7
2022-11-03T08:19:34.832Z,10.7
2022-11-03T08:20:22.195Z,10.7
2022-11-03T08:21:09.709Z,10.7
2022-11-03T08:21:57.009Z,10.7
2022-11-03T08:22:59.184Z,10.7
2022-11-03T08:23:46.110Z,10.7
2022-11-03T08:24:34.759Z,10.7
2022-11-03T08:25:22.212Z,10.7
2022-11-03T08:26:09.588Z,10.7
2022-11-03T08:26:56.889Z,10.7
2022-11-03T08:27:44.353Z,10.7
2022-11-03T08:28:31.639Z,10.7
2022-11-03T08:29:18.949Z,10.7
2022-11-03T08:30:06.352Z,10.7
2022-11-03T08:30:53.643Z,11.0
2022-11-03T08:31:40.907Z,11.0
2022-11-03T08:32:28.345Z,11.0
2022-11-03T08:33:15.653Z,11.0
2022-11-03T08:34:03.008Z,11.0
2022-11-03T08:34:50.388Z,11.0
2022-11-03T08:35:37.691Z,11.0
2022-11-03T08:36:25.031Z,11.0
2022-11-03T08:37:12.417Z,11.0
2022-11-03T08:37:59.788Z,11.0
2022-11-03T08:38:47.063Z,11.0
2022-11-03T08:39:34.575Z,11.0
2022-11-03T08:40:21.968Z,11.0
2022-11-03T08:41:09.299Z,11.0
2022-11-03T08:41:56.681Z,11.0
2022-11-03T08:42:43.957Z,11.0
2022-11-03T08:43:31.250Z,11.0
2022-11-03T08:44:18.678Z,11.0
2022-11-03T08:45:05.958Z,11.0
2022-11-03T08:45:53.377Z,11.0
2022-11-03T08:46:40.663Z,11.0
2022-11-03T08:47:27.944Z,11.0
2022-11-03T08:48:15.691Z,11.0
2022-11-03T08:49:02.969Z,11.0
2022-11-03T08:49:50.350Z,11.0
2022-11-03T08:50:37.648Z,11.0
2022-11-03T08:51:25.013Z,11.0
2022-11-03T08:52:12.372Z,11.0
2022-11-03T08:52:59.684Z,11.0
2022-11-03T08:53:46.979Z,11.0
2022-11-03T08:54:34.259Z,11.0
2022-11-03T08:55:21.602Z,11.0
2022-11-03T08:56:12.113Z,11.0
2022-11-03T08:57:00.749Z,11.0
2022-11-03T08:57:48.147Z,11.0
2022-11-03T08:58:35.454Z,11.0
2022-11-03T08:59:22.776Z,11.0
2022-11-03T09:00:10.172Z,11.0
2022-11-03T09:00:57.506Z,11.0
2022-11-03T09:01:44.933Z,11.0
2022-11-03T09:02:32.404Z,11.0
2022-11-03T09:03:19.802Z,11.0
2022-11-03T09:04:07.258Z,11.0
2022-11-03T09:04:54.639Z,11.0
2022-11-03T09:05:41.956Z,11.0
2022-11-03T09:06:29.257Z,11.0
2022-11-03T09:07:16.805Z,11.0
2022-11-03T09:10:55.998Z,11.0
2022-11-03T09:11:43.431Z,11.0
2022-11-03T09:12:30.721Z,11.0
2022-11-03T09:13:18.031Z,11.0
2022-11-03T09:14:05.439Z,11.0
2022-11-03T09:14:52.734Z,11.0
2022-11-03T09:15:40.036Z,11.0
2022-11-03T09:16:27.474Z,11.0
2022-11-03T09:17:14.749Z,11.0
2022-11-03T09:18:02.153Z,11.0
2022-11-03T09:18:49.502Z,11.0
2022-11-03T09:19:37.004Z,11.0
2022-11-03T09:20:24.373Z,11.0
2022-11-03T09:21:11.746Z,11.0
2022-11-03T09:21:59.043Z,11.0
2022-11-03T09:22:46.569Z,11.0
2022-11-03T09:23:33.944Z,11.0
2022-11-03T09:24:21.245Z,11.0
2022-11-03T09:25:08.567Z,11.0
2022-11-03T09:25:55.985Z,11.0
2022-11-03T09:26:43.271Z,11.0
2022-11-03T09:27:30.573Z,11.0
2022-11-03T09:28:20.917Z,11.0
2022-11-03T09:29:08.198Z,11.0
2022-11-03T09:30:12.345Z,11.0
2022-11-03T09:30:52.840Z,10.8
2022-11-03T09:31:40.204Z,10.8
2022-11-03T09:32:27.512Z,10.8
2022-11-03T09:33:14.868Z,10.8
2022-11-03T09:34:02.212Z,10.8
2022-11-03T09:34:49.507Z,10.8
2022-11-03T09:35:36.865Z,10.8
2022-11-03T09:36:24.239Z,10.8
2022-11-03T09:37:11.570Z,10.8
2022-11-03T09:37:58.847Z,10.8
2022-11-03T09:38:46.254Z,10.8
2022-11-03T09:39:33.564Z,10.8
2022-11-03T09:40:20.866Z,10.8
2022-11-03T09:41:18.725Z,10.8
2022-11-03T09:42:05.739Z,10.8
2022-11-03T09:42:53.084Z,10.8
2022-11-03T09:43:40.429Z,10.8
2022-11-03T09:44:27.715Z,10.8
2022-11-03T09:45:15.196Z,10.8
2022-11-03T09:46:02.515Z,10.8
2022-11-03T09:46:53.769Z,10.8
2022-11-03T09:47:44.445Z,10.8
2022-11-03T09:48:31.857Z,10.8
2022-11-03T09:49:19.172Z,10.8
2022-11-03T09:50:06.586Z,10.8
2022-11-03T09:50:53.909Z,10.8
2022-11-03T09:51:41.205Z,10.8
2022-11-03T09:52:28.592Z,10.8
2022-11-03T09:53:15.902Z,10.8
2022-11-03T09:54:03.231Z,10.8
2022-11-03T09:54:50.566Z,10.8
2022-11-03T09:55:38.151Z,10.8
2022-11-03T09:56:25.839Z,10.8
2022-11-03T09:57:13.179Z,10.8
2022-11-03T09:58:00.490Z,10.8
2022-11-03T09:58:53.033Z,10.8
2022-11-03T09:59:41.695Z,10.8
2022-11-03T10:00:29.075Z,10.8
2022-11-03T10:01:17.019Z,10.8
2022-11-03T10:02:04.507Z,10.8
2022-11-03T10:02:51.954Z,10.8
2022-11-03T10:03:39.308Z,10.8
2022-11-03T10:04:26.619Z,10.8
2022-11-03T10:05:14.016Z,10.8
2022-11-03T10:06:01.299Z,10.8
2022-11-03T10:06:48.590Z,10.8
2022-11-03T10:07:36.041Z,10.8
2022-11-03T10:08:23.324Z,10.8
2022-11-03T10:09:10.628Z,10.8
2022-11-03T10:09:58.074Z,10.8
2022-11-03T10:10:45.358Z,10.8
2022-11-03T10:11:32.647Z,10.8
2022-11-03T10:12:20.120Z,10.8
2022-11-03T10:13:07.833Z,10.8
2022-11-03T10:13:55.436Z,10.8
2022-11-03T10:14:42.900Z,10.8
2022-11-03T10:15:30.187Z,10.8
2022-11-03T10:16:17.484Z,10.8
2022-11-03T10:17:04.908Z,10.8
2022-11-03T10:17:52.253Z,10.8
2022-11-03T10:18:39.534Z,10.8
2022-11-03T10:19:27.010Z,10.8
2022-11-03T10:20:14.335Z,10.8
2022-11-03T10:21:01.611Z,10.8
2022-11-03T10:21:49.044Z,10.8
2022-11-03T10:22:40.856Z,10.8
2022-11-03T10:23:28.519Z,10.8
2022-11-03T10:24:15.970Z,10.8
2022-11-03T10:25:03.301Z,10.8
2022-11-03T10:25:50.585Z,10.8
2022-11-03T10:26:38.031Z,10.8
2022-11-03T10:27:25.341Z,10.8
2022-11-03T10:28:14.609Z,10.8
2022-11-03T10:29:02.411Z,10.8
2022-11-03T10:29:56.387Z,10.8
2022-11-03T10:30:58.007Z,11.7
2022-11-03T10:31:42.753Z,11.7
2022-11-03T10:32:30.194Z,11.7
2022-11-03T10:33:17.482Z,11.7
2022-11-03T10:34:04.752Z,11.7
2022-11-03T10:34:52.185Z,11.7
2022-11-03T10:35:39.463Z,11.7
2022-11-03T10:36:26.772Z,11.7
2022-11-03T10:37:14.188Z,11.7
2022-11-03T10:38:01.550Z,11.7
2022-11-03T10:38:48.923Z,11.7
2022-11-03T10:39:36.347Z,11.7
2022-11-03T10:40:46.766Z,11.7
2022-11-03T10:41:20.938Z,11.7
2022-11-03T10:42:08.391Z,11.7
2022-11-03T10:42:55.728Z,11.7
2022-11-03T10:43:43.054Z,11.7
2022-11-03T10:44:30.458Z,11.7
2022-11-03T10:45:17.789Z,11.7
2022-11-03T10:46:08.100Z,11.7
2022-11-03T10:46:55.454Z,11.7
2022-11-03T10:47:42.909Z,11.7
2022-11-03T10:48:30.249Z,11.7
2022-11-03T10:49:17.551Z,11.7
2022-11-03T10:50:04.962Z,11.7
2022-11-03T10:50:52.252Z,11.7
2022-11-03T10:51:39.617Z,11.7
2022-11-03T10:52:27.001Z,11.7
2022-11-03T10:53:14.448Z,11.7
2022-11-03T10:54:01.758Z,11.7
2022-11-03T10:54:49.188Z,11.7
2022-11-03T10:55:36.532Z,11.7
2022-11-03T10:56:23.815Z,11.7
2022-11-03T10:57:11.397Z,11.7
2022-11-03T10:57:58.683Z,11.7
2022-11-03T10:58:46.040Z,11.7
2022-11-03T10:59:33.430Z,11.7
2022-11-03T11:00:20.804Z,11.7
2022-11-03T11:01:08.210Z,11.7
2022-11-03T11:01:55.717Z,11.7
2022-11-03T11:02:43.139Z,11.7
2022-11-03T11:03:30.500Z,11.7
2022-11-03T11:04:17.988Z,11.7
2022-11-03T11:05:05.324Z,11.7
2022-11-03T11:05:52.623Z,11.7
2022-11-03T11:06:40.042Z,11.7
2022-11-03T11:07:27.419Z,11.7
2022-11-03T11:08:14.889Z,11.7
2022-11-03T11:09:02.305Z,11.7
2022-11-03T11:16:34.663Z,11.7
2022-11-03T11:24:07.019Z,11.7
2022-11-03T11:31:39.343Z,11.7
2022-11-03T11:39:11.686Z,9.8
2022-11-03T11:46:43.980Z,9.8
2022-11-03T11:54:19.202Z,9.8
2022-11-03T11:55:06.713Z,9.8
2022-11-03T11:55:54.045Z,9.8
2022-11-03T11:56:41.357Z,9.8
2022-11-03T11:57:28.682Z,9.8
2022-11-03T11:58:15.991Z,9.8
2022-11-03T11:59:05.987Z,9.8
2022-11-03T11:59:53.251Z,9.8
2022-11-03T12:00:40.629Z,9.8
2022-11-03T12:01:28.009Z,9.8
2022-11-03T12:02:15.407Z,9.8
2022-11-03T12:03:02.850Z,9.8
2022-11-03T12:03:50.312Z,9.8
2022-11-03T12:04:37.685Z,9.8
2022-11-03T12:05:25.094Z,9.8
2022-11-03T12:06:12.403Z,9.8
2022-11-03T12:06:59.691Z,9.8
2022-11-03T12:07:47.350Z,9.8
2022-11-03T12:08:34.683Z,9.8
2022-11-03T12:09:22.149Z,9.8
2022-11-03T12:10:09.500Z,9.8
2022-11-03T12:10:56.861Z,9.8
2022-11-03T12:11:46.016Z,9.8
2022-11-03T12:12:34.305Z,9.8
2022-11-03T12:13:21.705Z,9.8
2022-11-03T12:14:08.991Z,9.8
2022-11-03T12:14:56.302Z,9.8
2022-11-03T12:15:43.874Z,9.8
2022-11-03T12:16:31.185Z,9.8
2022-11-03T12:17:18.497Z,9.8
2022-11-03T12:18:06.053Z,9.8
2022-11-03T12:18:53.602Z,9.8
2022-11-03T12:19:41.074Z,9.8
2022-11-03T12:20:28.378Z,9.8
2022-11-03T12:21:15.688Z,9.8
2022-11-03T12:22:03.189Z,9.8
2022-11-03T12:22:50.578Z,9.8
2022-11-03T12:23:37.883Z,9.8
2022-11-03T12:24:25.189Z,9.8
2022-11-03T12:25:12.521Z,9.8
2022-11-03T12:25:59.817Z,9.8
2022-11-03T12:26:47.169Z,9.8
2022-11-03T12:27:34.503Z,9.8
2022-11-03T12:28:21.890Z,9.8
2022-11-03T12:29:09.201Z,9.8
2022-11-03T12:29:56.605Z,9.8
2022-11-03T12:30:43.915Z,8.7
2022-11-03T12:31:33.053Z,8.7
2022-11-03T12:32:33.588Z,8.7
2022-11-03T12:33:20.726Z,8.7
2022-11-03T12:34:08.039Z,8.7
2022-11-03T12:34:55.338Z,8.7
2022-11-03T12:35:42.639Z,8.7
2022-11-03T12:36:30.087Z,8.7
2022-11-03T12:37:17.376Z,8.7
2022-11-03T12:38:04.692Z,8.7
2022-11-03T12:38:52.114Z,8.7
2022-11-03T12:39:39.392Z,8.7
2022-11-03T12:40:26.793Z,8.7
2022-11-03T12:41:14.169Z,8.7
2022-11-03T12:42:01.446Z,8.7
2022-11-03T12:42:48.729Z,8.7
2022-11-03T12:43:36.123Z,8.7
2022-11-03T12:44:23.546Z,8.7
2022-11-03T12:45:10.858Z,8.7
2022-11-03T12:45:58.251Z,8.7
2022-11-03T12:46:45.544Z,8.7
2022-11-03T12:47:32.807Z,8.7
2022-11-03T12:48:20.287Z,8.7
2022-11-03T12:49:07.693Z,8.7
2022-11-03T12:49:55.014Z,8.7
2022-11-03T12:50:42.471Z,8.7
2022-11-03T12:51:29.751Z,8.7
2022-11-03T12:52:17.091Z,8.7
2022-11-03T12:53:04.860Z,8.7
2022-11-03T12:53:52.518Z,8.7
2022-11-03T12:54:39.812Z,8.7
2022-11-03T12:56:15.404Z,8.7
2022-11-03T12:57:02.695Z,8.7
2022-11-03T12:57:49.991Z,8.7
2022-11-03T12:58:37.339Z,8.7
2022-11-03T12:59:24.813Z,8.7
2022-11-03T13:00:12.141Z,8.7
2022-11-03T13:01:01.782Z,8.7
2022-11-03T13:01:49.679Z,8.7
2022-11-03T13:02:37.207Z,8.7
2022-11-03T13:03:24.720Z,8.7
2022-11-03T13:04:12.014Z,8.7
2022-11-03T13:04:59.594Z,8.7
2022-11-03T13:05:46.936Z,8.7
2022-11-03T13:06:34.282Z,8.7
2022-11-03T13:07:26.825Z,8.7
2022-11-03T13:09:09.963Z,8.7
2022-11-03T13:09:57.387Z,8.7
2022-11-03T13:10:44.649Z,8.7
2022-11-03T13:11:31.999Z,8.7
2022-11-03T13:12:19.443Z,8.7
2022-11-03T13:13:07.077Z,8.7
2022-11-03T13:13:54.582Z,8.7
2022-11-03T13:14:45.960Z,8.7
2022-11-03T13:15:35.967Z,8.7
2022-11-03T13:16:23.332Z,8.7
2022-11-03T13:17:10.644Z,8.7
2022-11-03T13:18:14.234Z,8.7
2022-11-03T13:18:55.803Z,8.7
2022-11-03T13:19:43.116Z,8.7
2022-11-03T13:20:30.683Z,8.7
2022-11-03T13:21:18.018Z,8.7
2022-11-03T13:22:05.425Z,8.7
2022-11-03T13:22:52.731Z,8.7
2022-11-03T13:23:40.033Z,8.7
2022-11-03T13:24:27.352Z,8.7
2022-11-03T13:25:14.746Z,8.7
2022-11-03T13:26:02.246Z,8.7
2022-11-03T13:26:49.666Z,8.7
2022-11-03T13:27:37.032Z,8.7
2022-11-03T13:28:24.383Z,8.7
2022-11-03T13:29:11.700Z,8.7
2022-11-03T13:29:59.115Z,8.7
2022-11-03T13:30:46.413Z,8.0
2022-11-03T13:31:33.716Z,8.0
2022-11-03T13:32:21.100Z,8.0
2022-11-03T13:33:08.867Z,8.0
2022-11-03T13:33:56.442Z,8.0
2022-11-03T13:34:43.925Z,8.0
2022-11-03T13:35:31.278Z,8.0
2022-11-03T13:36:18.674Z,8.0
2022-11-03T13:37:06.039Z,8.0
2022-11-03T13:37:53.364Z,8.0
2022-11-03T13:38:40.702Z,8.0
2022-11-03T13:39:28.164Z,8.0
2022-11-03T13:40:35.603Z,8.0
2022-11-03T13:41:12.846Z,8.0
2022-11-03T13:42:00.293Z,8.0
2022-11-03T13:42:47.577Z,8.0
2022-11-03T13:43:35.001Z,8.0
2022-11-03T13:44:22.337Z,8.0
2022-11-03T13:45:09.735Z,8.0
2022-11-03T13:45:57.041Z,8.0
2022-11-03T13:46:44.505Z,8.0
2022-11-03T13:47:44.031Z,8.0
2022-11-03T13:50:24.412Z,8.0
2022-11-03T13:51:12.336Z,8.0
2022-11-03T13:51:59.722Z,8.0
2022-11-03T13:52:47.081Z,8.0
2022-11-03T13:55:44.508Z,8.0
2022-11-03T13:56:26.700Z,8.0
2022-11-03T14:00:06.205Z,8.0
2022-11-03T14:00:53.657Z,8.0
2022-11-03T14:01:41.627Z,8.0
2022-11-03T14:04:43.966Z,8.0
2022-11-03T14:05:25.117Z,8.0
2022-11-03T14:06:12.538Z,8.0
2022-11-03T14:06:59.900Z,8.0
2022-11-03T14:07:47.311Z,8.0
2022-11-03T14:08:34.745Z,8.0
2022-11-03T14:09:22.115Z,8.0
2022-11-03T14:10:09.476Z,8.0
2022-11-03T14:10:56.882Z,8.0
2022-11-03T14:11:44.216Z,8.0
2022-11-03T14:12:31.722Z,8.0
2022-11-03T14:13:19.102Z,8.0
2022-11-03T14:14:06.638Z,8.0
2022-11-03T14:14:54.012Z,8.0
2022-11-03T14:15:41.396Z,8.0
2022-11-03T14:16:28.729Z,8.0
2022-11-03T14:17:16.188Z,8.0
2022-11-03T14:18:03.601Z,8.0
2022-11-03T14:18:50.930Z,8.0
2022-11-03T14:19:44.758Z,8.0
2022-11-03T14:20:33.553Z,8.0
2022-11-03T14:21:20.935Z,8.0
2022-11-03T14:22:08.259Z,8.0
2022-11-03T14:22:55.616Z,8.0
2022-11-03T14:23:42.987Z,8.0
2022-11-03T14:24:30.310Z,8.0
2022-11-03T14:25:17.681Z,8.0
2022-11-03T14:26:21.379Z,8.0
2022-11-03T14:27:02.342Z,8.0
2022-11-03T14:27:49.795Z,8.0
2022-11-03T14:28:37.224Z,8.0
2022-11-03T14:29:24.607Z,8.0
2022-11-03T14:30:12.024Z,8.0
2022-11-03T14:30:59.390Z,8.1
2022-11-03T14:31:46.949Z,8.1
2022-11-03T14:32:34.405Z,8.1
2022-11-03T14:33:21.772Z,8.1
2022-11-03T14:34:09.079Z,8.1
2022-11-03T14:34:56.645Z,8.1
2022-11-03T14:35:44.073Z,8.1
2022-11-03T14:36:31.520Z,8.1
2022-11-03T14:37:18.928Z,8.1
2022-11-03T14:38:06.326Z,8.1
2022-11-03T14:38:53.674Z,8.1
2022-11-03T14:39:41.107Z,8.1
2022-11-03T14:40:28.422Z,8.1
2022-11-03T14:41:15.807Z,8.1
2022-11-03T14:42:03.160Z,8.1
2022-11-03T14:42:50.569Z,8.1
2022-11-03T14:43:37.887Z,8.1
2022-11-03T14:44:25.377Z,8.1
2022-11-03T14:45:12.977Z,8.1
2022-11-03T14:46:00.387Z,8.1
2022-11-03T14:46:47.730Z,8.1
2022-11-03T14:47:35.735Z,8.1
2022-11-03T14:48:23.072Z,8.1
2022-11-03T14:49:10.455Z,8.1
2022-11-03T14:49:57.781Z,8.1
2022-11-03T14:50:45.105Z,8.1
2022-11-03T14:51:32.492Z,8.1
2022-11-03T14:52:19.812Z,8.1
2022-11-03T14:53:07.131Z,8.1
2022-11-03T14:53:54.538Z,8.1
2022-11-03T14:54:41.850Z,8.1
2022-11-03T14:55:29.146Z,8.1
2022-11-03T14:56:16.580Z,8.1
2022-11-03T14:57:03.873Z,8.1
2022-11-03T14:57:51.227Z,8.1
2022-11-03T14:58:38.616Z,8.1
2022-11-03T14:59:26.270Z,8.1
2022-11-03T15:00:16.585Z,8.1
2022-11-03T15:01:04.037Z,8.1
2022-11-03T15:01:51.467Z,8.1
2022-11-03T15:02:39.011Z,8.1
2022-11-03T15:03:26.405Z,8.1
2022-11-03T15:04:13.823Z,8.1
2022-11-03T15:05:01.138Z,8.1
2022-11-03T15:05:48.477Z,8.1
2022-11-03T15:06:35.946Z,8.1
2022-11-03T15:07:23.310Z,8.1
2022-11-03T15:08:10.662Z,8.1
2022-11-03T15:08:58.190Z,8.1
2022-11-03T15:09:45.562Z,8.1
2022-11-03T15:10:32.890Z,8.1
2022-11-03T15:11:20.351Z,8.1
2022-11-03T15:12:07.717Z,8.1
2022-11-03T15:12:55.052Z,8.1
2022-11-03T15:13:46.007Z,8.1
2022-11-03T15:14:36.113Z,8.1
2022-11-03T15:15:23.556Z,8.1
2022-11-03T15:16:10.914Z,8.1
2022-11-03T15:16:58.229Z,8.1
2022-11-03T15:17:45.710Z,8.1
2022-11-03T15:18:33.061Z,8.1
2022-11-03T15:19:20.582Z,8.1
2022-11-03T15:20:08.123Z,8.1
2022-11-03T15:20:55.658Z,8.1
2022-11-03T15:21:43.090Z,8.1
2022-11-03T15:25:30.011Z,8.1
2022-11-03T15:26:20.922Z,8.1
2022-11-03T15:27:08.354Z,8.1
2022-11-03T15:27:55.707Z,8.1
2022-11-03T15:28:43.023Z,8.1
2022-11-03T15:29:30.488Z,8.1
2022-11-03T15:30:18.083Z,8.1
2022-11-03T15:31:06.820Z,8.8
2022-11-03T15:31:54.546Z,8.8
2022-11-03T15:32:44.622Z,8.8
2022-11-03T15:33:32.091Z,8.8
2022-11-03T15:34:19.401Z,8.8
2022-11-03T15:35:06.808Z,8.8
2022-11-03T15:35:54.225Z,8.8
2022-11-03T15:36:41.701Z,8.8
2022-11-03T15:37:29.062Z,8.8
2022-11-03T15:38:16.455Z,8.8
2022-11-03T15:39:03.982Z,8.8
2022-11-03T15:39:53.575Z,8.8
2022-11-03T15:40:43.704Z,8.8
2022-11-03T15:41:31.038Z,8.8
2022-11-03T15:42:20.387Z,8.8
2022-11-03T15:43:08.379Z,8.8
2022-11-03T15:43:55.840Z,8.8
2022-11-03T15:44:43.181Z,8.8
2022-11-03T15:45:30.540Z,8.8
2022-11-03T15:46:17.864Z,8.8
2022-11-03T15:47:05.326Z,8.8
2022-11-03T15:47:57.290Z,8.8
2022-11-03T15:48:45.717Z,8.8
2022-11-03T15:49:33.126Z,8.8
2022-11-03T15:50:20.522Z,8.8
2022-11-03T15:51:07.948Z,8.8
2022-11-03T15:51:55.542Z,8.8
2022-11-03T15:52:43.036Z,8.8
2022-11-03T15:53:30.575Z,8.8
2022-11-03T15:54:17.979Z,8.8
2022-11-03T15:55:05.361Z,8.8
2022-11-03T15:55:52.685Z,8.8
2022-11-03T15:56:40.134Z,8.8
2022-11-03T15:57:27.445Z,8.8
2022-11-03T15:58:14.751Z,8.8
2022-11-03T15:59:02.223Z,8.8
2022-11-03T15:59:51.556Z,8.8
2022-11-03T16:00:40.011Z,8.8
2022-11-03T16:01:27.648Z,8.8
2022-11-03T16:02:39.640Z,8.8
2022-11-03T16:03:12.653Z,8.8
2022-11-03T16:04:00.220Z,8.8
2022-11-03T16:04:47.566Z,8.8
2022-11-03T16:05:34.914Z,8.8
2022-11-03T16:06:27.060Z,8.8
2022-11-03T16:07:19.716Z,8.8
2022-11-03T16:08:07.428Z,8.8
2022-11-03T16:08:55.113Z,8.8
2022-11-03T16:09:42.491Z,8.8
2022-11-03T16:10:29.829Z,8.8
2022-11-03T16:11:17.261Z,8.8
2022-11-03T16:12:04.604Z,8.8
2022-11-03T16:12:52.625Z,8.8
2022-11-03T16:13:39.991Z,8.8
2022-11-03T16:14:27.331Z,8.8
2022-11-03T16:15:14.651Z,8.8
2022-11-03T16:16:01.971Z,8.8
2022-11-03T16:23:34.337Z,8.8
2022-11-03T16:31:06.955Z,8.8
2022-11-03T16:38:39.400Z,9.8
2022-11-03T16:46:11.700Z,9.8
2022-11-03T16:53:44.001Z,9.8
2022-11-03T17:01:16.362Z,9.8
2022-11-03T17:08:53.530Z,9.8
2022-11-03T17:16:26.218Z,9.8
2022-11-03T17:23:58.535Z,9.8
2022-11-03T17:31:30.852Z,9.8
2022-11-03T17:39:03.159Z,9.0
2022-11-03T17:46:35.467Z,9.0
2022-11-03T17:54:07.793Z,9.0
2022-11-03T18:01:40.260Z,9.0
2022-11-03T18:09:12.632Z,9.0
2022-11-03T18:16:44.937Z,9.0